RJNO(METAR)
05/30 16:00
RJNO 300700Z 05013KT CAVOK 19/16 Q1018 RMK A3006=
戻る
トップページへ戻る
IMOC Co,.Ltd.